Time;durP1;ratioP1;P1;durP2;ratioP2;P2;SDS_P1;SDS_P2;PMS_P1;PMS_P2;Temp;Humidity;BMP_temperature;BMP_pressure;BME280_temperature;BME280_humidity;BME280_pressure;Samples;Min_cycle;Max_cycle;Signal;HPM_P1;HPM_P2
2021/03/21 00:02:16;;;;;;;16.77;6.78;;;;;;;;;;5001810;28;20041;-62
2021/03/21 00:04:42;;;;;;;14.75;5.68;;;;;;;;;;4994548;28;20038;-60
2021/03/21 00:07:08;;;;;;;16.58;6.68;;;;;;;;;;5012547;28;20030;-55
2021/03/21 00:09:34;;;;;;;15.57;6.20;;;;;;;;;;5006932;28;20029;-58
2021/03/21 00:12:00;;;;;;;16.38;6.90;;;;;;;;;;5010693;28;20075;-54
2021/03/21 00:14:30;;;;;;;16.13;6.32;;;;;;;;;;5026609;28;20025;-57
2021/03/21 00:16:56;;;;;;;17.13;6.88;;;;;;;;;;5011939;28;20133;-59
2021/03/21 00:19:22;;;;;;;17.45;6.40;;;;;;;;;;5011798;28;20079;-56
2021/03/21 00:21:48;;;;;;;16.73;7.20;;;;;;;;;;5013407;28;20029;-58
2021/03/21 00:24:14;;;;;;;17.50;7.35;;;;;;;;;;5031451;28;20515;-59
2021/03/21 00:26:40;;;;;;;17.58;7.65;;;;;;;;;;5031019;28;20026;-59
2021/03/21 00:29:07;;;;;;;18.52;7.93;;;;;;;;;;5030925;28;20030;-59
2021/03/21 00:31:33;;;;;;;18.75;7.28;;;;;;;;;;4992052;28;20034;-55
2021/03/21 00:33:59;;;;;;;18.00;7.72;;;;;;;;;;5012176;28;20033;-55
2021/03/21 00:36:26;;;;;;;18.60;8.05;;;;;;;;;;5029488;28;20217;-56
2021/03/21 00:38:53;;;;;;;18.60;8.13;;;;;;;;;;5015344;28;20026;-59
2021/03/21 00:41:25;;;;;;;18.15;7.60;;;;;;;;;;5017710;28;20030;-56
2021/03/21 00:43:51;;;;;;;17.70;8.45;;;;;;;;;;5043018;23;20152;-56
2021/03/21 00:46:18;;;;;;;18.27;8.00;;;;;;;;;;5032343;28;20440;-59
2021/03/21 00:48:45;;;;;;;18.10;8.13;;;;;;;;;;5016643;28;20047;-59
2021/03/21 00:51:13;;;;;;;20.20;9.30;;;;;;;;;;5034157;28;20068;-58
2021/03/21 00:53:40;;;;;;;18.85;7.88;;;;;;;;;;5034269;28;20075;-58
2021/03/21 00:56:06;;;;;;;19.13;8.63;;;;;;;;;;5034021;28;20033;-60
2021/03/21 00:58:32;;;;;;;20.35;9.18;;;;;;;;;;5034106;28;20488;-60
2021/03/21 01:01:00;;;;;;;20.02;8.23;;;;;;;;;;5021642;28;20032;-56
2021/03/21 01:03:26;;;;;;;19.30;8.55;;;;;;;;;;5027572;28;20037;-59
2021/03/21 01:05:55;;;;;;;19.20;9.18;;;;;;;;;;5017107;28;20030;-55
2021/03/21 01:08:21;;;;;;;;;;;;;;;;;;5013010;28;20022;-58
2021/03/21 01:10:47;;;;;;;20.13;8.98;;;;;;;;;;5031805;28;20386;-59
2021/03/21 01:13:13;;;;;;;20.48;8.63;;;;;;;;;;5023676;28;20061;-59
2021/03/21 01:15:39;;;;;;;19.90;8.85;;;;;;;;;;5030629;28;20148;-59
2021/03/21 01:18:06;;;;;;;20.40;10.05;;;;;;;;;;5015360;28;20112;-60
2021/03/21 01:20:32;;;;;;;19.45;9.60;;;;;;;;;;5033862;28;20021;-56
2021/03/21 01:22:59;;;;;;;20.20;9.27;;;;;;;;;;5024369;28;20022;-58
2021/03/21 01:25:26;;;;;;;21.05;10.18;;;;;;;;;;5013162;28;20477;-58
2021/03/21 01:27:52;;;;;;;19.90;9.98;;;;;;;;;;5013301;28;20044;-59
2021/03/21 01:30:19;;;;;;;20.83;9.48;;;;;;;;;;5014010;28;20484;-61
2021/03/21 01:32:45;;;;;;;19.55;9.02;;;;;;;;;;5018781;28;20026;-61
2021/03/21 01:35:12;;;;;;;20.88;10.15;;;;;;;;;;5031574;28;20385;-59
2021/03/21 01:37:38;;;;;;;20.17;8.45;;;;;;;;;;5032957;28;20021;-60
2021/03/21 01:40:05;;;;;;;19.63;9.18;;;;;;;;;;5013796;28;20024;-61
2021/03/21 01:42:38;;;;;;;19.50;8.55;;;;;;;;;;5013320;28;20034;-57
2021/03/21 01:45:23;;;;;;;20.92;9.52;;;;;;;;;;5015172;28;20396;-57
2021/03/21 01:47:49;;;;;;;20.90;8.85;;;;;;;;;;5014858;28;20026;-59
2021/03/21 01:50:27;;;;;;;19.17;8.93;;;;;;;;;;5033183;28;20389;-55
2021/03/21 01:52:54;;;;;;;22.17;9.55;;;;;;;;;;5026701;28;20029;-57
2021/03/21 01:55:22;;;;;;;21.42;9.38;;;;;;;;;;5021922;28;20075;-59
2021/03/21 01:57:48;;;;;;;19.97;8.50;;;;;;;;;;5026447;28;20032;-59
2021/03/21 02:00:14;;;;;;;19.42;9.18;;;;;;;;;;5013346;28;20026;-60
2021/03/21 02:02:40;;;;;;;18.85;8.70;;;;;;;;;;5012808;28;20029;-61
2021/03/21 02:05:07;;;;;;;18.75;8.15;;;;;;;;;;5014985;28;20079;-61
2021/03/21 02:07:39;;;;;;;19.95;8.90;;;;;;;;;;5020246;28;20018;-58
2021/03/21 02:10:25;;;;;;;21.45;8.32;;;;;;;;;;5013300;28;20468;-58
2021/03/21 02:13:02;;;;;;;18.20;8.07;;;;;;;;;;5005825;28;20469;-58
2021/03/21 02:15:41;;;;;;;19.63;8.27;;;;;;;;;;5012992;28;20481;-58
2021/03/21 02:18:09;;;;;;;18.52;7.78;;;;;;;;;;5012292;28;20624;-58
2021/03/21 02:20:35;;;;;;;18.50;7.18;;;;;;;;;;5012858;28;20041;-59
2021/03/21 02:23:05;;;;;;;17.65;7.30;;;;;;;;;;5011472;28;20030;-59
2021/03/21 02:25:41;;;;;;;17.92;8.00;;;;;;;;;;5012867;28;20025;-59
2021/03/21 02:28:10;;;;;;;17.45;8.07;;;;;;;;;;5010927;28;20084;-57
2021/03/21 02:30:44;;;;;;;18.40;7.30;;;;;;;;;;5012765;28;20065;-58
2021/03/21 02:33:18;;;;;;;18.15;7.90;;;;;;;;;;5012719;28;20049;-60
2021/03/21 02:35:51;;;;;;;18.23;7.55;;;;;;;;;;5012778;28;20032;-59
2021/03/21 02:38:36;;;;;;;17.02;7.60;;;;;;;;;;5010442;28;20404;-58
2021/03/21 02:41:04;;;;;;;18.23;7.57;;;;;;;;;;5013147;28;20033;-59
2021/03/21 02:43:30;;;;;;;21.88;8.25;;;;;;;;;;5011312;28;20044;-57
2021/03/21 02:45:58;;;;;;;18.38;6.93;;;;;;;;;;5012211;28;20053;-59
2021/03/21 02:48:30;;;;;;;18.38;7.57;;;;;;;;;;5011291;28;20113;-56
2021/03/21 02:50:58;;;;;;;17.65;7.88;;;;;;;;;;5011508;28;20026;-56
2021/03/21 02:53:38;;;;;;;19.35;7.65;;;;;;;;;;5013089;28;20037;-60
2021/03/21 02:56:05;;;;;;;17.05;7.30;;;;;;;;;;5012613;28;20069;-59
2021/03/21 02:58:37;;;;;;;18.42;7.75;;;;;;;;;;5011300;28;20037;-59
2021/03/21 03:01:08;;;;;;;18.15;7.68;;;;;;;;;;5012724;28;20036;-60
2021/03/21 03:03:37;;;;;;;18.30;7.60;;;;;;;;;;5012928;28;20102;-56
2021/03/21 03:06:08;;;;;;;19.50;7.28;;;;;;;;;;5012170;28;20081;-59
2021/03/21 03:08:42;;;;;;;17.45;6.97;;;;;;;;;;5012514;28;20067;-59
2021/03/21 03:11:12;;;;;;;17.27;7.53;;;;;;;;;;5012462;28;20018;-58
2021/03/21 03:13:43;;;;;;;15.95;6.65;;;;;;;;;;5011266;28;20052;-58
2021/03/21 03:16:16;;;;;;;18.30;7.78;;;;;;;;;;5011533;28;20029;-58
2021/03/21 03:19:03;;;;;;;17.63;7.95;;;;;;;;;;5012491;28;20026;-58
2021/03/21 03:21:45;;;;;;;16.65;7.15;;;;;;;;;;5006165;28;20038;-58
2021/03/21 03:24:17;;;;;;;19.30;8.13;;;;;;;;;;5012580;28;20072;-57
2021/03/21 03:26:59;;;;;;;18.38;8.82;;;;;;;;;;5011459;28;20025;-58
2021/03/21 03:29:40;;;;;;;17.00;7.30;;;;;;;;;;5012336;28;20409;-56
2021/03/21 03:32:09;;;;;;;17.50;7.40;;;;;;;;;;5010005;28;20029;-57
2021/03/21 03:34:36;;;;;;;18.92;8.55;;;;;;;;;;5011144;28;20029;-58
2021/03/21 03:37:02;;;;;;;20.95;9.07;;;;;;;;;;5011408;28;20022;-54
2021/03/21 03:39:28;;;;;;;18.42;8.20;;;;;;;;;;5011059;28;20038;-61
2021/03/21 03:41:57;;;;;;;18.02;8.07;;;;;;;;;;5011953;28;20034;-59
2021/03/21 03:44:26;;;;;;;18.05;7.75;;;;;;;;;;5010664;28;20493;-59
2021/03/21 03:47:01;;;;;;;18.35;8.75;;;;;;;;;;5009970;28;20037;-56
2021/03/21 03:49:40;;;;;;;20.55;8.77;;;;;;;;;;5014090;28;20113;-60
2021/03/21 03:52:12;;;;;;;19.63;8.70;;;;;;;;;;5016049;28;20014;-55
2021/03/21 03:54:48;;;;;;;19.67;8.95;;;;;;;;;;5015921;28;20026;-56
2021/03/21 03:57:29;;;;;;;18.70;8.88;;;;;;;;;;5013731;28;20481;-58
2021/03/21 04:00:04;;;;;;;19.77;9.48;;;;;;;;;;5014619;28;20079;-58
2021/03/21 04:02:43;;;;;;;18.45;8.50;;;;;;;;;;5015717;28;20049;-56
2021/03/21 04:05:09;;;;;;;;;;;;;;;;;;5015795;28;20026;-57
2021/03/21 04:07:46;;;;;;;18.83;8.85;;;;;;;;;;5013607;28;19906;-59
2021/03/21 04:10:17;;;;;;;18.80;8.87;;;;;;;;;;5014198;28;20057;-58
2021/03/21 04:12:47;;;;;;;20.38;9.65;;;;;;;;;;5013905;28;20026;-60
2021/03/21 04:15:22;;;;;;;21.38;9.77;;;;;;;;;;5015381;28;20034;-58
2021/03/21 04:17:51;;;;;;;19.63;9.68;;;;;;;;;;5014662;28;20029;-55
2021/03/21 04:20:25;;;;;;;20.98;10.30;;;;;;;;;;5013876;28;20062;-60
2021/03/21 04:23:00;;;;;;;19.23;9.82;;;;;;;;;;5015228;28;20025;-58
2021/03/21 04:25:28;;;;;;;19.75;9.10;;;;;;;;;;5015058;28;20053;-59
2021/03/21 04:27:58;;;;;;;19.80;10.20;;;;;;;;;;5014565;28;20018;-58
2021/03/21 04:30:33;;;;;;;20.98;10.18;;;;;;;;;;5014037;28;20389;-56
2021/03/21 04:33:01;;;;;;;20.63;9.80;;;;;;;;;;5014745;28;20097;-58
2021/03/21 04:35:38;;;;;;;21.73;10.75;;;;;;;;;;5013681;28;20041;-58
2021/03/21 04:38:08;;;;;;;22.63;9.73;;;;;;;;;;5013080;28;20164;-59
2021/03/21 04:40:34;;;;;;;18.98;8.88;;;;;;;;;;5013410;28;20399;-60
2021/03/21 04:43:13;;;;;;;18.60;8.23;;;;;;;;;;5014450;28;20027;-55
2021/03/21 04:45:44;;;;;;;18.88;8.80;;;;;;;;;;5014835;28;20033;-58
2021/03/21 04:48:14;;;;;;;20.50;9.75;;;;;;;;;;5014142;28;20041;-59
2021/03/21 04:50:40;;;;;;;18.75;8.90;;;;;;;;;;5014853;28;20068;-59
2021/03/21 04:53:15;;;;;;;19.52;9.80;;;;;;;;;;5014639;28;20029;-59
2021/03/21 04:55:46;;;;;;;18.42;9.35;;;;;;;;;;5013417;28;20030;-58
2021/03/21 04:58:16;;;;;;;17.17;8.15;;;;;;;;;;5014089;28;20026;-59
2021/03/21 05:00:45;;;;;;;19.02;10.13;;;;;;;;;;5014516;28;20038;-57
2021/03/21 05:03:40;;;;;;;19.42;9.55;;;;;;;;;;5014558;28;20025;-57
2021/03/21 05:06:12;;;;;;;20.10;9.20;;;;;;;;;;5005079;28;20442;-57
2021/03/21 05:08:58;;;;;;;19.75;9.75;;;;;;;;;;5014198;28;20080;-56
2021/03/21 05:11:29;;;;;;;18.55;8.88;;;;;;;;;;5014188;28;20447;-58
2021/03/21 05:14:01;;;;;;;17.60;8.98;;;;;;;;;;5014637;28;20018;-58
2021/03/21 05:16:31;;;;;;;18.65;9.07;;;;;;;;;;5012126;28;20029;-55
2021/03/21 05:19:17;;;;;;;17.88;9.50;;;;;;;;;;5014296;28;20108;-57
2021/03/21 05:21:47;;;;;;;19.27;9.52;;;;;;;;;;5014012;28;20080;-60
2021/03/21 05:24:33;;;;;;;18.17;9.73;;;;;;;;;;5014089;28;20022;-57
2021/03/21 05:27:05;;;;;;;19.60;9.90;;;;;;;;;;5013289;28;20109;-54
2021/03/21 05:29:50;;;;;;;20.75;9.55;;;;;;;;;;5012665;28;20033;-57
2021/03/21 05:32:18;;;;;;;18.92;8.73;;;;;;;;;;5014069;28;20110;-57
2021/03/21 05:34:44;;;;;;;18.63;9.18;;;;;;;;;;5013947;28;20018;-55
2021/03/21 05:37:29;;;;;;;17.20;8.15;;;;;;;;;;5013426;28;20032;-59
2021/03/21 05:40:02;;;;;;;18.13;8.85;;;;;;;;;;5013831;28;20033;-59
2021/03/21 05:42:46;;;;;;;18.00;8.38;;;;;;;;;;5013523;28;20168;-58
2021/03/21 05:45:27;;;;;;;18.13;7.80;;;;;;;;;;5014090;28;20032;-54
2021/03/21 05:48:02;;;;;;;16.35;7.55;;;;;;;;;;5011663;28;20026;-62
2021/03/21 05:50:37;;;;;;;17.48;7.45;;;;;;;;;;5013599;28;20112;-58
2021/03/21 05:53:22;;;;;;;17.83;8.18;;;;;;;;;;5013505;28;20096;-60
2021/03/21 05:56:06;;;;;;;18.85;7.97;;;;;;;;;;5013349;28;20034;-58
2021/03/21 05:58:44;;;;;;;17.17;7.97;;;;;;;;;;5012173;28;20116;-58
2021/03/21 06:01:23;;;;;;;16.88;8.00;;;;;;;;;;5013721;28;20022;-57
2021/03/21 06:03:49;;;;;;;;;;;;;;;;;;5013724;28;20029;-60
2021/03/21 06:06:18;;;;;;;17.92;9.18;;;;;;;;;;5012614;28;19968;-58
2021/03/21 06:09:10;;;;;;;17.40;8.32;;;;;;;;;;5013250;28;20093;-59
2021/03/21 06:11:45;;;;;;;18.10;8.00;;;;;;;;;;4996480;28;20038;-56
2021/03/21 06:14:36;;;;;;;17.98;8.65;;;;;;;;;;5011929;28;20022;-59
2021/03/21 06:17:22;;;;;;;19.88;7.88;;;;;;;;;;5011172;28;20030;-58
2021/03/21 06:19:48;;;;;;;17.35;8.40;;;;;;;;;;5013057;28;20026;-60
2021/03/21 06:22:17;;;;;;;18.00;7.72;;;;;;;;;;5011600;28;20030;-61
2021/03/21 06:25:02;;;;;;;16.42;7.53;;;;;;;;;;5012999;28;20393;-57
2021/03/21 06:27:55;;;;;;;19.45;7.82;;;;;;;;;;5011383;28;20030;-60
2021/03/21 06:30:41;;;;;;;19.13;8.20;;;;;;;;;;5013535;28;20072;-58
2021/03/21 06:33:12;;;;;;;17.83;7.80;;;;;;;;;;5011601;28;20030;-57
2021/03/21 06:35:58;;;;;;;17.63;7.75;;;;;;;;;;5012911;28;20040;-57
2021/03/21 06:38:42;;;;;;;17.55;8.48;;;;;;;;;;4991217;28;20030;-56
2021/03/21 06:41:12;;;;;;;24.85;8.52;;;;;;;;;;5012823;28;20029;-58
2021/03/21 06:43:42;;;;;;;18.60;7.20;;;;;;;;;;5027965;22;20508;-58
2021/03/21 06:46:24;;;;;;;17.83;7.28;;;;;;;;;;5010496;28;20117;-57
2021/03/21 06:49:15;;;;;;;16.80;6.82;;;;;;;;;;4991383;28;20026;-61
2021/03/21 06:51:41;;;;;;;14.60;6.50;;;;;;;;;;4975107;28;20069;-57
2021/03/21 06:54:10;;;;;;;16.95;7.57;;;;;;;;;;5011668;28;20054;-58
2021/03/21 06:56:56;;;;;;;14.55;7.13;;;;;;;;;;5011584;28;20030;-60
2021/03/21 06:59:39;;;;;;;17.10;6.80;;;;;;;;;;4998787;28;20092;-61
2021/03/21 07:02:11;;;;;;;16.70;7.55;;;;;;;;;;5012325;28;20029;-56
2021/03/21 07:04:53;;;;;;;15.63;7.00;;;;;;;;;;5011989;28;20393;-55
2021/03/21 07:07:19;;;;;;;15.07;6.63;;;;;;;;;;4993822;28;20056;-61
2021/03/21 07:09:52;;;;;;;14.63;6.93;;;;;;;;;;5000521;28;20023;-61
2021/03/21 07:12:18;;;;;;;15.40;6.88;;;;;;;;;;4994514;28;20449;-59
2021/03/21 07:15:02;;;;;;;17.98;7.25;;;;;;;;;;5012094;28;20022;-57
2021/03/21 07:17:47;;;;;;;15.02;6.50;;;;;;;;;;5012143;28;20036;-54
2021/03/21 07:20:16;;;;;;;15.18;6.97;;;;;;;;;;5012296;28;20030;-55
2021/03/21 07:23:01;;;;;;;14.57;6.35;;;;;;;;;;4994462;28;20481;-56
2021/03/21 07:25:46;;;;;;;13.57;6.70;;;;;;;;;;4997900;28;20026;-59
2021/03/21 07:28:18;;;;;;;16.95;6.70;;;;;;;;;;4997783;28;20088;-57
2021/03/21 07:30:44;;;;;;;15.60;7.07;;;;;;;;;;4998262;28;20056;-58
2021/03/21 07:33:19;;;;;;;17.85;7.35;;;;;;;;;;5015470;28;20492;-61
2021/03/21 07:36:12;;;;;;;16.98;7.53;;;;;;;;;;5015276;28;20101;-59
2021/03/21 07:39:03;;;;;;;14.27;6.75;;;;;;;;;;5014349;28;20037;-57
2021/03/21 07:41:37;;;;;;;17.73;6.78;;;;;;;;;;4998601;28;20030;-58
2021/03/21 07:44:16;;;;;;;16.42;7.13;;;;;;;;;;4998085;28;20033;-58
2021/03/21 07:46:54;;;;;;;16.88;6.82;;;;;;;;;;5015815;28;20432;-54
2021/03/21 07:49:28;;;;;;;19.20;7.10;;;;;;;;;;4998639;28;20583;-59
2021/03/21 07:51:54;;;;;;;17.70;6.80;;;;;;;;;;5015402;28;20030;-56
2021/03/21 07:54:38;;;;;;;20.65;7.15;;;;;;;;;;4996958;28;20108;-55
2021/03/21 07:57:07;;;;;;;18.58;7.13;;;;;;;;;;5011116;28;20030;-53
2021/03/21 07:59:35;;;;;;;16.33;7.65;;;;;;;;;;4997182;28;20370;-55
2021/03/21 08:02:01;;;;;;;17.90;8.25;;;;;;;;;;4997663;28;20037;-52
2021/03/21 08:04:32;;;;;;;26.27;8.30;;;;;;;;;;4997846;28;20040;-59
2021/03/21 08:07:03;;;;;;;18.20;7.30;;;;;;;;;;5015767;28;20389;-59
2021/03/21 08:09:31;;;;;;;17.30;7.78;;;;;;;;;;5015336;28;20086;-57
2021/03/21 08:12:05;;;;;;;23.83;8.43;;;;;;;;;;5015668;28;20022;-55
2021/03/21 08:14:32;;;;;;;18.98;8.20;;;;;;;;;;5015568;28;20032;-57
2021/03/21 08:17:02;;;;;;;18.63;8.13;;;;;;;;;;4997430;28;20026;-54
2021/03/21 08:19:29;;;;;;;23.67;8.15;;;;;;;;;;5015242;28;20030;-56
2021/03/21 08:21:56;;;;;;;17.92;8.40;;;;;;;;;;4997486;28;20120;-55
2021/03/21 08:24:26;;;;;;;21.67;8.18;;;;;;;;;;5014556;28;20030;-55
2021/03/21 08:26:51;;;;;;;24.75;8.75;;;;;;;;;;4997252;28;20053;-57
2021/03/21 08:29:28;;;;;;;18.40;9.10;;;;;;;;;;5014851;28;20556;-57
2021/03/21 08:32:03;;;;;;;21.08;8.80;;;;;;;;;;5014946;28;20083;-55
2021/03/21 08:34:32;;;;;;;24.92;8.80;;;;;;;;;;4996776;28;20116;-59
2021/03/21 08:36:59;;;;;;;22.65;8.40;;;;;;;;;;4996920;28;20022;-58
2021/03/21 08:39:35;;;;;;;23.90;8.55;;;;;;;;;;5014215;28;20429;-57
2021/03/21 08:42:02;;;;;;;23.75;8.82;;;;;;;;;;4997145;28;20499;-56
2021/03/21 08:44:31;;;;;;;21.20;8.63;;;;;;;;;;4996863;28;20532;-57
2021/03/21 08:46:57;;;;;;;21.05;9.13;;;;;;;;;;5014348;28;20076;-56
2021/03/21 08:49:24;;;;;;;24.83;9.77;;;;;;;;;;5014634;28;20018;-54
2021/03/21 08:51:50;;;;;;;24.73;10.13;;;;;;;;;;5014513;28;20109;-59
2021/03/21 08:54:28;;;;;;;27.40;10.77;;;;;;;;;;4996334;28;20033;-59
2021/03/21 08:56:59;;;;;;;32.30;11.63;;;;;;;;;;4996707;28;20113;-56
2021/03/21 08:59:27;;;;;;;29.35;11.65;;;;;;;;;;5014408;28;20030;-59
2021/03/21 09:01:58;;;;;;;27.08;11.43;;;;;;;;;;4996795;28;20137;-59
2021/03/21 09:04:25;;;;;;;26.25;11.98;;;;;;;;;;4996535;28;20137;-57
2021/03/21 09:06:52;;;;;;;26.98;12.52;;;;;;;;;;5013913;28;20026;-55
2021/03/21 09:09:23;;;;;;;35.83;13.60;;;;;;;;;;4995919;28;20022;-58
2021/03/21 09:11:51;;;;;;;27.23;12.98;;;;;;;;;;5014131;28;20034;-61
2021/03/21 09:14:22;;;;;;;23.77;12.02;;;;;;;;;;5014056;28;20022;-59
2021/03/21 09:17:07;;;;;;;31.75;11.75;;;;;;;;;;4996268;28;20461;-59
2021/03/21 09:19:35;;;;;;;29.33;13.75;;;;;;;;;;4996221;28;20112;-61
2021/03/21 09:22:02;;;;;;;27.35;12.45;;;;;;;;;;5014083;28;20516;-59
2021/03/21 09:24:37;;;;;;;29.48;13.30;;;;;;;;;;4996131;28;20044;-58
2021/03/21 09:27:22;;;;;;;29.95;14.02;;;;;;;;;;5013681;28;20029;-60
2021/03/21 09:29:49;;;;;;;28.85;13.35;;;;;;;;;;5014118;28;20033;-62
2021/03/21 09:32:42;;;;;;;30.27;13.50;;;;;;;;;;4996272;28;20112;-61
2021/03/21 09:35:26;;;;;;;29.13;13.18;;;;;;;;;;5011501;28;20034;-62
2021/03/21 09:37:55;;;;;;;37.97;14.20;;;;;;;;;;5012916;28;20381;-56
2021/03/21 09:40:27;;;;;;;27.90;12.85;;;;;;;;;;5013574;28;20513;-55
2021/03/21 09:42:53;;;;;;;30.45;12.00;;;;;;;;;;5013516;28;20037;-60
2021/03/21 09:45:22;;;;;;;33.42;13.93;;;;;;;;;;5013346;28;20030;-60
2021/03/21 09:48:02;;;;;;;28.23;12.43;;;;;;;;;;5012357;28;20033;-61
2021/03/21 09:50:34;;;;;;;28.80;12.30;;;;;;;;;;4995589;28;20030;-62
2021/03/21 09:53:27;;;;;;;28.85;12.82;;;;;;;;;;5012832;28;20077;-59
2021/03/21 09:55:54;;;;;;;28.23;12.50;;;;;;;;;;5010334;28;20404;-59
2021/03/21 09:58:32;;;;;;;31.88;14.18;;;;;;;;;;5012935;28;20088;-60
2021/03/21 10:01:01;;;;;;;32.17;12.15;;;;;;;;;;5013206;28;20109;-60
2021/03/21 10:03:32;;;;;;;27.75;11.90;;;;;;;;;;4995557;28;20129;-61
2021/03/21 10:06:01;;;;;;;28.55;11.90;;;;;;;;;;4995394;28;20030;-58
2021/03/21 10:08:27;;;;;;;30.27;12.65;;;;;;;;;;4994039;28;20030;-56
2021/03/21 10:10:52;;;;;;;32.38;13.27;;;;;;;;;;5013000;28;20025;-63
2021/03/21 10:13:30;;;;;;;28.63;13.02;;;;;;;;;;5010241;28;20026;-62
2021/03/21 10:16:09;;;;;;;34.20;13.57;;;;;;;;;;5012879;28;20397;-59
2021/03/21 10:18:41;;;;;;;33.25;12.45;;;;;;;;;;5011557;28;20068;-60
2021/03/21 10:21:07;;;;;;;27.38;14.25;;;;;;;;;;5004741;28;20030;-60
2021/03/21 10:23:56;;;;;;;30.55;13.43;;;;;;;;;;5011592;28;20030;-60
2021/03/21 10:26:23;;;;;;;31.83;15.45;;;;;;;;;;4996718;28;20026;-59
2021/03/21 10:28:49;;;;;;;43.85;16.52;;;;;;;;;;5011419;28;20021;-58
2021/03/21 10:31:25;;;;;;;33.25;13.60;;;;;;;;;;5000152;28;20026;-57
2021/03/21 10:33:53;;;;;;;30.27;13.88;;;;;;;;;;5003873;28;20040;-60
2021/03/21 10:36:38;;;;;;;26.10;12.70;;;;;;;;;;5012096;28;20108;-58
2021/03/21 10:39:07;;;;;;;31.63;13.65;;;;;;;;;;5011752;28;20338;-62
2021/03/21 10:41:54;;;;;;;26.25;13.15;;;;;;;;;;5012281;28;20389;-66
2021/03/21 10:44:41;;;;;;;28.70;13.23;;;;;;;;;;5011936;28;20140;-65
2021/03/21 10:47:10;;;;;;;28.88;14.05;;;;;;;;;;5012116;28;20032;-65
2021/03/21 10:49:55;;;;;;;29.45;13.18;;;;;;;;;;5009042;28;20092;-65
2021/03/21 10:52:30;;;;;;;34.55;14.35;;;;;;;;;;5011871;28;20131;-62
2021/03/21 10:55:12;;;;;;;36.78;12.50;;;;;;;;;;5012322;28;20377;-61
2021/03/21 10:57:45;;;;;;;32.03;12.48;;;;;;;;;;4993933;28;20485;-65
2021/03/21 11:00:20;;;;;;;26.30;11.95;;;;;;;;;;5009961;28;20037;-64
2021/03/21 11:02:49;;;;;;;41.13;15.55;;;;;;;;;;4994518;28;20117;-63
2021/03/21 11:05:32;;;;;;;34.55;13.43;;;;;;;;;;5025187;28;20025;-63
2021/03/21 11:08:01;;;;;;;36.83;16.85;;;;;;;;;;5009337;28;20026;-62
2021/03/21 11:10:32;;;;;;;31.35;13.32;;;;;;;;;;5014400;28;20022;-64
2021/03/21 11:12:58;;;;;;;30.63;14.90;;;;;;;;;;5009275;28;20042;-64
2021/03/21 11:15:34;;;;;;;36.92;14.13;;;;;;;;;;5011728;28;20025;-63
2021/03/21 11:18:01;;;;;;;29.50;13.52;;;;;;;;;;5009185;28;20022;-61
2021/03/21 11:20:32;;;;;;;29.33;14.85;;;;;;;;;;4994076;28;20033;-61
2021/03/21 11:22:58;;;;;;;30.83;14.32;;;;;;;;;;5011968;28;20101;-65
2021/03/21 11:25:35;;;;;;;39.15;15.18;;;;;;;;;;5010529;28;20030;-63
2021/03/21 11:28:01;;;;;;;28.50;13.65;;;;;;;;;;5010627;28;20029;-63
2021/03/21 11:30:28;;;;;;;30.02;13.55;;;;;;;;;;4994380;28;20169;-63
2021/03/21 11:32:58;;;;;;;29.50;14.05;;;;;;;;;;5011569;28;20022;-64
2021/03/21 11:35:28;;;;;;;31.95;14.40;;;;;;;;;;5012303;28;20022;-63
2021/03/21 11:37:56;;;;;;;34.08;15.23;;;;;;;;;;4994378;28;20026;-62
2021/03/21 11:40:33;;;;;;;25.13;13.73;;;;;;;;;;5012114;28;20056;-59
2021/03/21 11:43:11;;;;;;;32.42;14.18;;;;;;;;;;5010841;28;20030;-62
2021/03/21 11:45:37;;;;;;;31.52;13.52;;;;;;;;;;5011980;28;20034;-63
2021/03/21 11:48:09;;;;;;;31.38;14.23;;;;;;;;;;5000037;28;20026;-64
2021/03/21 11:50:39;;;;;;;30.45;15.43;;;;;;;;;;5011826;28;20026;-63
2021/03/21 11:53:07;;;;;;;32.07;14.73;;;;;;;;;;5011726;28;20045;-62
2021/03/21 11:55:37;;;;;;;34.90;14.73;;;;;;;;;;5012704;28;20272;-62
2021/03/21 11:58:03;;;;;;;24.63;14.30;;;;;;;;;;5011781;28;20030;-61
2021/03/21 12:00:37;;;;;;;26.88;13.75;;;;;;;;;;4994245;28;20061;-63
2021/03/21 12:03:18;;;;;;;30.55;15.88;;;;;;;;;;4994416;28;20022;-62
2021/03/21 12:05:45;;;;;;;29.60;14.50;;;;;;;;;;5009888;28;20030;-64
2021/03/21 12:08:14;;;;;;;30.88;15.07;;;;;;;;;;5009694;28;20098;-64
2021/03/21 12:10:42;;;;;;;29.95;16.95;;;;;;;;;;5014005;28;20431;-62
2021/03/21 12:13:35;;;;;;;26.88;15.70;;;9.00;77.40;;;;;;5014747;28;20072;-63
2021/03/21 12:16:03;;;;;;;32.08;15.70;;;10.80;99.90;;;;;;5015043;28;20555;-64
2021/03/21 12:18:34;;;;;;;29.50;15.93;;;10.30;99.90;;;;;;4995491;28;20034;-63
2021/03/21 12:21:14;;;;;;;49.65;17.65;;;10.00;99.90;;;;;;5008036;28;20030;-63
2021/03/21 12:23:45;;;;;;;30.63;15.23;;;10.10;99.90;;;;;;5006232;28;20164;-61
2021/03/21 12:26:10;;;;;;;31.33;15.05;;;9.70;99.90;;;;;;4998888;28;20026;-63
2021/03/21 12:29:24;;;;;;;36.28;16.60;;;9.70;99.90;;;;;;5014812;28;20021;-61
2021/03/21 12:32:12;;;;;;;27.77;14.88;;;10.20;99.90;;;;;;5014010;28;20065;-61
2021/03/21 12:34:43;;;;;;;32.33;15.15;;;;;;;;;;5015051;28;20022;-62
2021/03/21 12:37:16;;;;;;;38.20;15.60;;;;;;;;;;5013111;28;20026;-62
2021/03/21 12:39:45;;;;;;;38.45;17.80;;;;;;;;;;5014953;28;20385;-63
2021/03/21 12:42:30;;;;;;;36.03;15.65;;;;;;;;;;5013407;28;20029;-64
2021/03/21 12:45:08;;;;;;;32.13;15.13;;;;;;;;;;5028471;22;20137;-59
2021/03/21 12:47:38;;;;;;;30.42;16.02;;;;;;;;;;4995936;28;20034;-56
2021/03/21 12:50:22;;;;;;;27.27;14.60;;;;;;;;;;5031343;28;20053;-58
2021/03/21 12:52:48;;;;;;;29.17;14.35;;;9.60;99.90;;;;;;5013017;28;20033;-55
2021/03/21 12:55:15;;;;;;;31.17;15.55;;;10.30;99.90;;;;;;5016187;28;20030;-57
2021/03/21 12:57:41;;;;;;;33.53;15.93;;;10.20;99.90;;;;;;5034608;28;20033;-56
2021/03/21 13:00:08;;;;;;;28.30;15.93;;;10.70;99.90;;;;;;5016689;28;20029;-53
2021/03/21 13:02:36;;;;;;;29.65;15.48;;;11.20;99.70;;;;;;5015410;28;20159;-58
2021/03/21 13:05:21;;;;;;;38.83;16.13;;;11.30;99.90;;;;;;5011598;28;20040;-58
2021/03/21 13:07:46;;;;;;;30.38;16.63;;;10.90;99.90;;;;;;5030976;28;20572;-56
2021/03/21 13:10:12;;;;;;;26.35;15.13;;;10.80;99.50;;;;;;5015872;28;20112;-56
2021/03/21 13:12:39;;;;;;;25.90;15.43;;;10.90;99.90;;;;;;4634335;28;9999719;-58
2021/03/21 13:15:05;;;;;;;26.02;16.23;;;10.90;99.20;;;;;;4993774;28;20493;-55
2021/03/21 13:17:31;;;;;;;33.28;16.10;;;10.40;99.50;;;;;;4993538;28;20369;-53
2021/03/21 13:19:57;;;;;;;29.58;16.42;;;10.20;99.60;;;;;;4992848;28;20029;-52
2021/03/21 13:22:24;;;;;;;30.48;16.45;;;10.20;99.90;;;;;;5010013;28;20065;-59
2021/03/21 13:24:50;;;;;;;32.70;16.13;;;10.30;99.70;;;;;;4993251;28;20081;-57
2021/03/21 13:27:16;;;;;;;31.02;16.08;;;;;;;;;;5010806;28;20026;-55
2021/03/21 13:29:42;;;;;;;30.83;15.73;;;;;;;;;;5010218;28;20025;-56
2021/03/21 13:32:08;;;;;;;34.20;17.08;;;;;;;;;;5010419;28;20018;-57
2021/03/21 13:34:35;;;;;;;30.60;16.13;;;;;;;;;;4992811;28;20041;-55
2021/03/21 13:37:03;;;;;;;26.08;15.40;;;10.20;99.90;;;;;;5005945;28;20036;-56
2021/03/21 13:39:32;;;;;;;30.02;16.02;;;10.60;99.80;;;;;;5013549;28;20392;-58
2021/03/21 13:41:58;;;;;;;27.58;15.50;;;;;;;;;;5012697;28;20042;-51
2021/03/21 13:44:24;;;;;;;28.40;15.38;;;;;;;;;;4995555;28;20041;-58
2021/03/21 13:46:50;;;;;;;27.90;14.30;;;;;;;;;;4995568;28;20071;-57
2021/03/21 13:49:18;;;;;;;28.30;15.45;;;;;;;;;;5013088;28;20111;-50
2021/03/21 13:51:44;;;;;;;31.48;15.35;;;;;;;;;;5013004;28;20025;-53
2021/03/21 13:54:10;;;;;;;33.58;17.33;;;;;;;;;;5012645;28;20068;-54
2021/03/21 13:56:36;;;;;;;32.80;17.20;;;;;;;;;;4666285;28;10000279;-58
2021/03/21 13:59:02;;;;;;;33.03;17.70;;;;;;;;;;4991977;28;20033;-55
2021/03/21 14:01:29;;;;;;;35.90;16.08;;;;;;;;;;5020743;28;20554;-56
2021/03/21 14:03:55;;;;;;;31.67;15.48;;;;;;;;;;5019477;28;20119;-59
2021/03/21 14:06:24;;;;;;;31.95;17.10;;;;;;;;;;5005044;28;20028;-59
2021/03/21 14:08:50;;;;;;;24.92;15.20;;;10.30;99.90;;;;;;5000141;28;20025;-57
2021/03/21 14:11:16;;;;;;;28.00;15.57;;;10.70;99.90;;;;;;5022395;28;20037;-56
2021/03/21 14:13:42;;;;;;;32.70;16.15;;;10.70;99.90;;;;;;5021419;28;20028;-54
2021/03/21 14:16:07;;;;;;;32.05;15.75;;;10.40;99.90;;;;;;5005137;28;20017;-56
2021/03/21 14:18:33;;;;;;;34.03;16.13;;;;;;;;;;5021945;28;20022;-53
2021/03/21 14:21:00;;;;;;;29.70;15.73;;;;;;;;;;5021594;28;20029;-53
2021/03/21 14:23:27;;;;;;;34.85;15.05;;;;;;;;;;5005661;28;20068;-56
2021/03/21 14:25:54;;;;;;;27.63;15.73;;;;;;;;;;5021926;28;20100;-54
2021/03/21 14:28:20;;;;;;;32.88;14.93;;;;;;;;;;5018426;28;20022;-51
2021/03/21 14:30:47;;;;;;;28.52;15.18;;;;;;;;;;5012634;28;20022;-53
2021/03/21 14:33:16;;;;;;;29.83;15.43;;;;;;;;;;5012070;28;20404;-59
2021/03/21 14:35:42;;;;;;;30.38;15.52;;;;;;;;;;4994803;28;20018;-56
2021/03/21 14:38:14;;;;;;;24.52;16.08;;;;;;;;;;5014943;28;20042;-58
2021/03/21 14:40:41;;;;;;;27.40;15.95;;;;;;;;;;5022001;28;20105;-52
2021/03/21 14:43:08;;;;;;;27.65;15.27;;;;;;;;;;5020791;28;20044;-57
2021/03/21 14:45:34;;;;;;;30.25;15.50;;;;;;;;;;5021844;28;20026;-56